sensor_id;sensor_type;location;lat;lon;timestamp;pressure;altitude;pressure_sealevel;temperature;humidity
25526;BME280;13424;48.424;11.258;2024-02-04T00:02:09;96571.91;;;9.58;76.12
25526;BME280;13424;48.424;11.258;2024-02-04T00:04:40;96561.31;;;9.90;74.91
25526;BME280;13424;48.424;11.258;2024-02-04T00:07:06;96561.69;;;10.00;74.39
25526;BME280;13424;48.424;11.258;2024-02-04T00:09:38;96563.50;;;10.06;74.52
25526;BME280;13424;48.424;11.258;2024-02-04T00:12:05;96557.44;;;9.86;75.04
25526;BME280;13424;48.424;11.258;2024-02-04T00:15:44;96540.06;;;9.70;75.60
25526;BME280;13424;48.424;11.258;2024-02-04T00:18:10;96523.13;;;9.64;75.76
25526;BME280;13424;48.424;11.258;2024-02-04T00:25:16;96526.97;;;9.68;75.50
25526;BME280;13424;48.424;11.258;2024-02-04T00:27:45;96526.69;;;9.90;75.06
25526;BME280;13424;48.424;11.258;2024-02-04T00:30:11;96518.19;;;9.61;75.82
25526;BME280;13424;48.424;11.258;2024-02-04T00:32:38;96515.09;;;10.09;73.95
25526;BME280;13424;48.424;11.258;2024-02-04T00:35:05;96494.00;;;9.63;75.26
25526;BME280;13424;48.424;11.258;2024-02-04T00:37:31;96502.69;;;9.38;76.10
25526;BME280;13424;48.424;11.258;2024-02-04T00:39:57;96504.53;;;9.44;76.49
25526;BME280;13424;48.424;11.258;2024-02-04T00:42:23;96499.53;;;9.61;75.70
25526;BME280;13424;48.424;11.258;2024-02-04T00:44:49;96499.31;;;9.63;75.55
25526;BME280;13424;48.424;11.258;2024-02-04T00:47:15;96496.00;;;9.22;76.96
25526;BME280;13424;48.424;11.258;2024-02-04T00:49:41;96505.38;;;9.32;76.74
25526;BME280;13424;48.424;11.258;2024-02-04T00:52:07;96512.94;;;9.86;74.79
25526;BME280;13424;48.424;11.258;2024-02-04T00:54:33;96502.75;;;10.15;73.68
25526;BME280;13424;48.424;11.258;2024-02-04T00:56:59;96503.75;;;9.89;74.55
25526;BME280;13424;48.424;11.258;2024-02-04T00:59:26;96502.91;;;9.88;74.93
25526;BME280;13424;48.424;11.258;2024-02-04T01:01:52;96497.78;;;9.48;75.53
25526;BME280;13424;48.424;11.258;2024-02-04T01:04:17;96504.38;;;9.84;75.03
25526;BME280;13424;48.424;11.258;2024-02-04T01:06:43;96496.19;;;9.79;74.79
25526;BME280;13424;48.424;11.258;2024-02-04T01:09:09;96485.28;;;9.49;75.47
25526;BME280;13424;48.424;11.258;2024-02-04T01:11:35;96493.44;;;9.92;74.14
25526;BME280;13424;48.424;11.258;2024-02-04T01:14:01;96487.84;;;10.07;73.84
25526;BME280;13424;48.424;11.258;2024-02-04T01:16:27;96477.47;;;9.47;75.13
25526;BME280;13424;48.424;11.258;2024-02-04T01:18:55;96484.78;;;9.65;75.30
25526;BME280;13424;48.424;11.258;2024-02-04T01:21:21;96483.41;;;9.56;75.25
25526;BME280;13424;48.424;11.258;2024-02-04T01:23:47;96490.13;;;9.59;75.13
25526;BME280;13424;48.424;11.258;2024-02-04T01:26:13;96512.47;;;9.64;75.38
25526;BME280;13424;48.424;11.258;2024-02-04T01:28:39;96511.00;;;9.68;74.86
25526;BME280;13424;48.424;11.258;2024-02-04T01:31:05;96508.22;;;9.50;75.53
25526;BME280;13424;48.424;11.258;2024-02-04T01:33:31;96520.13;;;9.41;76.02
25526;BME280;13424;48.424;11.258;2024-02-04T01:35:57;96514.25;;;9.70;74.84
25526;BME280;13424;48.424;11.258;2024-02-04T01:38:24;96507.66;;;9.28;75.99
25526;BME280;13424;48.424;11.258;2024-02-04T01:40:50;96512.66;;;9.63;74.78
25526;BME280;13424;48.424;11.258;2024-02-04T01:43:18;96513.63;;;9.17;76.40
25526;BME280;13424;48.424;11.258;2024-02-04T01:45:47;96520.13;;;9.34;75.87
25526;BME280;13424;48.424;11.258;2024-02-04T01:48:22;96523.16;;;9.51;74.92
25526;BME280;13424;48.424;11.258;2024-02-04T01:50:50;96517.13;;;9.69;74.68
25526;BME280;13424;48.424;11.258;2024-02-04T01:57:04;96504.88;;;9.61;74.41
25526;BME280;13424;48.424;11.258;2024-02-04T01:59:32;96512.56;;;9.83;73.78
25526;BME280;13424;48.424;11.258;2024-02-04T02:02:01;96504.19;;;9.28;74.76
25526;BME280;13424;48.424;11.258;2024-02-04T02:04:27;96495.50;;;9.52;74.62
25526;BME280;13424;48.424;11.258;2024-02-04T02:06:54;96493.06;;;9.44;74.85
25526;BME280;13424;48.424;11.258;2024-02-04T02:09:21;96484.50;;;9.35;75.30
25526;BME280;13424;48.424;11.258;2024-02-04T02:12:12;96483.41;;;9.56;74.06
25526;BME280;13424;48.424;11.258;2024-02-04T02:15:01;96467.88;;;9.40;74.93
25526;BME280;13424;48.424;11.258;2024-02-04T02:17:40;96463.06;;;9.17;75.07
25526;BME280;13424;48.424;11.258;2024-02-04T02:20:23;96467.03;;;9.46;74.03
25526;BME280;13424;48.424;11.258;2024-02-04T02:24:00;96459.13;;;9.26;74.41
25526;BME280;13424;48.424;11.258;2024-02-04T02:26:31;96456.13;;;9.54;73.53
25526;BME280;13424;48.424;11.258;2024-02-04T02:28:58;96453.31;;;9.49;73.50
25526;BME280;13424;48.424;11.258;2024-02-04T02:31:25;96458.00;;;9.54;73.48
25526;BME280;13424;48.424;11.258;2024-02-04T02:33:51;96459.44;;;9.56;73.32
25526;BME280;13424;48.424;11.258;2024-02-04T02:36:21;96452.19;;;9.18;74.19
25526;BME280;13424;48.424;11.258;2024-02-04T02:39:17;96462.59;;;9.71;73.20
25526;BME280;13424;48.424;11.258;2024-02-04T02:41:49;96469.16;;;9.75;72.78
25526;BME280;13424;48.424;11.258;2024-02-04T02:44:16;96477.81;;;9.64;73.09
25526;BME280;13424;48.424;11.258;2024-02-04T02:46:42;96480.59;;;9.83;72.62
25526;BME280;13424;48.424;11.258;2024-02-04T02:49:08;96480.78;;;9.88;72.35
25526;BME280;13424;48.424;11.258;2024-02-04T02:51:34;96472.03;;;9.74;72.87
25526;BME280;13424;48.424;11.258;2024-02-04T02:54:00;96480.94;;;9.93;72.29
25526;BME280;13424;48.424;11.258;2024-02-04T02:56:32;96475.81;;;9.98;72.56
25526;BME280;13424;48.424;11.258;2024-02-04T02:58:58;96476.41;;;9.55;73.45
25526;BME280;13424;48.424;11.258;2024-02-04T03:01:24;96471.59;;;9.77;73.05
25526;BME280;13424;48.424;11.258;2024-02-04T03:03:50;96479.50;;;9.52;73.50
25526;BME280;13424;48.424;11.258;2024-02-04T03:06:16;96480.50;;;9.64;73.14
25526;BME280;13424;48.424;11.258;2024-02-04T03:08:42;96481.25;;;9.71;73.49
25526;BME280;13424;48.424;11.258;2024-02-04T03:11:08;96482.38;;;9.57;73.76
25526;BME280;13424;48.424;11.258;2024-02-04T03:13:38;96479.94;;;9.49;73.94
25526;BME280;13424;48.424;11.258;2024-02-04T03:16:04;96472.66;;;9.25;74.42
25526;BME280;13424;48.424;11.258;2024-02-04T03:18:30;96474.63;;;9.42;73.88
25526;BME280;13424;48.424;11.258;2024-02-04T03:20:57;96470.75;;;9.32;74.49
25526;BME280;13424;48.424;11.258;2024-02-04T03:23:23;96474.88;;;9.34;74.67
25526;BME280;13424;48.424;11.258;2024-02-04T03:25:55;96476.50;;;9.42;74.10
25526;BME280;13424;48.424;11.258;2024-02-04T03:28:21;96468.19;;;8.99;74.84
25526;BME280;13424;48.424;11.258;2024-02-04T03:30:47;96481.25;;;9.27;74.73
25526;BME280;13424;48.424;11.258;2024-02-04T03:33:14;96474.19;;;9.52;74.09
25526;BME280;13424;48.424;11.258;2024-02-04T03:35:40;96463.66;;;9.26;74.65
25526;BME280;13424;48.424;11.258;2024-02-04T03:38:06;96459.97;;;9.20;74.52
25526;BME280;13424;48.424;11.258;2024-02-04T03:40:32;96456.59;;;9.44;74.54
25526;BME280;13424;48.424;11.258;2024-02-04T03:42:58;96462.44;;;9.15;75.10
25526;BME280;13424;48.424;11.258;2024-02-04T03:45:24;96446.75;;;8.87;76.08
25526;BME280;13424;48.424;11.258;2024-02-04T03:47:50;96462.28;;;9.03;75.62
25526;BME280;13424;48.424;11.258;2024-02-04T03:50:16;96463.66;;;9.26;75.26
25526;BME280;13424;48.424;11.258;2024-02-04T03:52:42;96457.13;;;9.08;74.92
25526;BME280;13424;48.424;11.258;2024-02-04T03:55:09;96473.84;;;9.29;74.66
25526;BME280;13424;48.424;11.258;2024-02-04T03:57:35;96475.16;;;9.06;75.61
25526;BME280;13424;48.424;11.258;2024-02-04T04:00:01;96482.22;;;9.39;74.88
25526;BME280;13424;48.424;11.258;2024-02-04T04:02:37;96487.34;;;9.40;74.61
25526;BME280;13424;48.424;11.258;2024-02-04T04:05:04;96478.94;;;9.37;74.91
25526;BME280;13424;48.424;11.258;2024-02-04T04:07:30;96469.38;;;9.22;75.17
25526;BME280;13424;48.424;11.258;2024-02-04T04:09:56;96470.75;;;9.38;74.42
25526;BME280;13424;48.424;11.258;2024-02-04T04:12:22;96475.03;;;9.39;74.63
25526;BME280;13424;48.424;11.258;2024-02-04T04:14:48;96479.84;;;9.17;75.29
25526;BME280;13424;48.424;11.258;2024-02-04T04:17:14;96495.13;;;9.35;74.82
25526;BME280;13424;48.424;11.258;2024-02-04T04:19:40;96475.13;;;9.19;75.17
25526;BME280;13424;48.424;11.258;2024-02-04T04:22:06;96463.47;;;9.14;75.69
25526;BME280;13424;48.424;11.258;2024-02-04T04:24:32;96473.09;;;9.08;75.72
25526;BME280;13424;48.424;11.258;2024-02-04T04:26:58;96473.25;;;9.27;75.35
25526;BME280;13424;48.424;11.258;2024-02-04T04:29:24;96473.72;;;9.10;75.74
25526;BME280;13424;48.424;11.258;2024-02-04T04:31:50;96476.38;;;9.10;75.24
25526;BME280;13424;48.424;11.258;2024-02-04T04:34:18;96484.41;;;9.55;74.39
25526;BME280;13424;48.424;11.258;2024-02-04T04:36:45;96482.28;;;9.19;75.49
25526;BME280;13424;48.424;11.258;2024-02-04T04:39:12;96472.59;;;9.38;74.44
25526;BME280;13424;48.424;11.258;2024-02-04T04:41:43;96474.13;;;9.07;75.24
25526;BME280;13424;48.424;11.258;2024-02-04T04:44:16;96465.25;;;9.33;74.78
25526;BME280;13424;48.424;11.258;2024-02-04T04:46:42;96481.22;;;9.33;74.85
25526;BME280;13424;48.424;11.258;2024-02-04T04:49:08;96480.75;;;9.56;74.08
25526;BME280;13424;48.424;11.258;2024-02-04T04:51:35;96476.50;;;9.42;74.04
25526;BME280;13424;48.424;11.258;2024-02-04T04:54:01;96493.25;;;9.87;72.88
25526;BME280;13424;48.424;11.258;2024-02-04T04:56:27;96480.63;;;9.76;73.19
25526;BME280;13424;48.424;11.258;2024-02-04T04:58:53;96476.34;;;9.75;73.55
25526;BME280;13424;48.424;11.258;2024-02-04T05:01:19;96485.00;;;9.64;73.67
25526;BME280;13424;48.424;11.258;2024-02-04T05:03:45;96485.81;;;9.00;76.73
25526;BME280;13424;48.424;11.258;2024-02-04T05:06:12;96485.31;;;9.36;75.76
25526;BME280;13424;48.424;11.258;2024-02-04T05:08:38;96478.34;;;9.41;75.64
25526;BME280;13424;48.424;11.258;2024-02-04T05:11:04;96471.22;;;9.15;75.86
25526;BME280;13424;48.424;11.258;2024-02-04T05:13:30;96473.34;;;9.58;75.67
25526;BME280;13424;48.424;11.258;2024-02-04T05:15:56;96469.44;;;9.54;74.77
25526;BME280;13424;48.424;11.258;2024-02-04T05:18:22;96473.38;;;9.45;75.15
25526;BME280;13424;48.424;11.258;2024-02-04T05:20:52;96474.03;;;9.78;74.29
25526;BME280;13424;48.424;11.258;2024-02-04T05:23:18;96477.53;;;9.41;75.31
25526;BME280;13424;48.424;11.258;2024-02-04T05:25:44;96480.31;;;9.59;74.83
25526;BME280;13424;48.424;11.258;2024-02-04T05:28:10;96484.00;;;9.58;74.52
25526;BME280;13424;48.424;11.258;2024-02-04T05:30:36;96468.75;;;9.20;75.26
25526;BME280;13424;48.424;11.258;2024-02-04T05:33:02;96465.06;;;9.21;75.36
25526;BME280;13424;48.424;11.258;2024-02-04T05:35:28;96455.81;;;9.37;74.92
25526;BME280;13424;48.424;11.258;2024-02-04T05:37:54;96460.34;;;9.23;75.29
25526;BME280;13424;48.424;11.258;2024-02-04T05:40:20;96460.31;;;9.37;75.41
25526;BME280;13424;48.424;11.258;2024-02-04T05:42:47;96456.69;;;9.25;75.46
25526;BME280;13424;48.424;11.258;2024-02-04T05:45:13;96456.72;;;9.11;75.96
25526;BME280;13424;48.424;11.258;2024-02-04T05:47:39;96461.16;;;9.31;75.36
25526;BME280;13424;48.424;11.258;2024-02-04T05:50:06;96462.59;;;9.33;75.21
25526;BME280;13424;48.424;11.258;2024-02-04T05:52:32;96478.63;;;9.13;75.77
25526;BME280;13424;48.424;11.258;2024-02-04T05:54:58;96470.03;;;9.05;76.17
25526;BME280;13424;48.424;11.258;2024-02-04T05:57:24;96469.34;;;9.29;75.78
25526;BME280;13424;48.424;11.258;2024-02-04T05:59:50;96469.00;;;9.12;75.75
25526;BME280;13424;48.424;11.258;2024-02-04T06:02:18;96477.09;;;9.37;75.44
25526;BME280;13424;48.424;11.258;2024-02-04T06:04:44;96478.38;;;9.28;75.23
25526;BME280;13424;48.424;11.258;2024-02-04T06:07:11;96491.06;;;9.33;75.38
25526;BME280;13424;48.424;11.258;2024-02-04T06:09:37;96492.72;;;9.20;75.55
25526;BME280;13424;48.424;11.258;2024-02-04T06:12:04;96487.47;;;9.01;75.91
25526;BME280;13424;48.424;11.258;2024-02-04T06:14:33;96485.34;;;9.16;75.88
25526;BME280;13424;48.424;11.258;2024-02-04T06:17:00;96481.34;;;8.93;76.45
25526;BME280;13424;48.424;11.258;2024-02-04T06:19:26;96498.06;;;9.07;76.44
25526;BME280;13424;48.424;11.258;2024-02-04T06:21:53;96493.38;;;9.09;76.04
25526;BME280;13424;48.424;11.258;2024-02-04T06:24:19;96492.34;;;9.17;75.57
25526;BME280;13424;48.424;11.258;2024-02-04T06:26:46;96507.66;;;9.28;75.20
25526;BME280;13424;48.424;11.258;2024-02-04T06:29:12;96513.84;;;9.02;76.01
25526;BME280;13424;48.424;11.258;2024-02-04T06:31:50;96514.84;;;9.14;75.41
25526;BME280;13424;48.424;11.258;2024-02-04T06:34:16;96512.38;;;9.19;75.73
25526;BME280;13424;48.424;11.258;2024-02-04T06:36:43;96513.66;;;8.97;76.20
25526;BME280;13424;48.424;11.258;2024-02-04T06:39:12;96507.44;;;9.30;75.18
25526;BME280;13424;48.424;11.258;2024-02-04T06:41:38;96506.06;;;9.07;75.72
25526;BME280;13424;48.424;11.258;2024-02-04T06:44:05;96500.94;;;8.99;76.00
25526;BME280;13424;48.424;11.258;2024-02-04T06:46:31;96514.09;;;8.74;76.60
25526;BME280;13424;48.424;11.258;2024-02-04T06:48:57;96517.38;;;8.63;77.33
25526;BME280;13424;48.424;11.258;2024-02-04T06:51:23;96510.59;;;8.93;76.44
25526;BME280;13424;48.424;11.258;2024-02-04T06:53:49;96507.34;;;8.85;76.17
25526;BME280;13424;48.424;11.258;2024-02-04T06:56:16;96493.19;;;9.04;75.66
25526;BME280;13424;48.424;11.258;2024-02-04T06:58:42;96495.25;;;8.76;76.60
25526;BME280;13424;48.424;11.258;2024-02-04T07:01:09;96483.41;;;8.45;77.20
25526;BME280;13424;48.424;11.258;2024-02-04T07:03:35;96487.88;;;8.84;76.31
25526;BME280;13424;48.424;11.258;2024-02-04T07:06:02;96472.34;;;8.68;76.51
25526;BME280;13424;48.424;11.258;2024-02-04T07:08:28;96469.50;;;8.70;76.31
25526;BME280;13424;48.424;11.258;2024-02-04T07:10:53;96481.97;;;8.69;76.55
25526;BME280;13424;48.424;11.258;2024-02-04T07:13:20;96486.28;;;8.63;76.90
25526;BME280;13424;48.424;11.258;2024-02-04T07:15:46;96501.59;;;8.94;75.92
25526;BME280;13424;48.424;11.258;2024-02-04T07:18:12;96507.31;;;8.91;76.25
25526;BME280;13424;48.424;11.258;2024-02-04T07:20:38;96501.81;;;8.73;76.46
25526;BME280;13424;48.424;11.258;2024-02-04T07:23:05;96494.03;;;8.78;76.88
25526;BME280;13424;48.424;11.258;2024-02-04T07:25:31;96506.28;;;8.92;76.37
25526;BME280;13424;48.424;11.258;2024-02-04T07:28:02;96499.75;;;8.95;76.58
25526;BME280;13424;48.424;11.258;2024-02-04T07:30:28;96500.94;;;8.99;76.53
25526;BME280;13424;48.424;11.258;2024-02-04T07:32:54;96504.69;;;8.85;76.92
25526;BME280;13424;48.424;11.258;2024-02-04T07:35:20;96503.00;;;9.04;76.35
25526;BME280;13424;48.424;11.258;2024-02-04T07:37:46;96500.72;;;9.14;76.49
25526;BME280;13424;48.424;11.258;2024-02-04T07:40:12;96489.94;;;8.89;76.63
25526;BME280;13424;48.424;11.258;2024-02-04T07:43:06;96489.09;;;8.95;76.36
25526;BME280;13424;48.424;11.258;2024-02-04T07:45:34;96481.28;;;9.13;76.23
25526;BME280;13424;48.424;11.258;2024-02-04T07:48:01;96484.28;;;9.37;75.81
25526;BME280;13424;48.424;11.258;2024-02-04T07:50:28;96492.69;;;9.40;75.36
25526;BME280;13424;48.424;11.258;2024-02-04T07:52:54;96492.50;;;9.29;75.85
25526;BME280;13424;48.424;11.258;2024-02-04T07:55:20;96483.69;;;9.35;75.11
25526;BME280;13424;48.424;11.258;2024-02-04T07:57:46;96485.69;;;9.39;75.94
25526;BME280;13424;48.424;11.258;2024-02-04T08:00:13;96499.97;;;9.58;75.11
25526;BME280;13424;48.424;11.258;2024-02-04T08:02:39;96491.44;;;9.43;75.41
25526;BME280;13424;48.424;11.258;2024-02-04T08:05:06;96506.03;;;9.27;75.80
25526;BME280;13424;48.424;11.258;2024-02-04T08:07:32;96503.97;;;9.29;75.51
25526;BME280;13424;48.424;11.258;2024-02-04T08:09:58;96502.16;;;9.16;75.76
25526;BME280;13424;48.424;11.258;2024-02-04T08:12:24;96508.53;;;9.73;74.41
25526;BME280;13424;48.424;11.258;2024-02-04T08:14:50;96500.75;;;9.72;74.26
25526;BME280;13424;48.424;11.258;2024-02-04T08:17:16;96500.66;;;9.85;73.88
25526;BME280;13424;48.424;11.258;2024-02-04T08:19:42;96493.13;;;9.75;73.96
25526;BME280;13424;48.424;11.258;2024-02-04T08:22:08;96500.28;;;9.82;73.76
25526;BME280;13424;48.424;11.258;2024-02-04T08:24:34;96505.13;;;9.98;73.60
25526;BME280;13424;48.424;11.258;2024-02-04T08:27:02;96504.88;;;9.61;74.55
25526;BME280;13424;48.424;11.258;2024-02-04T08:29:29;96485.56;;;9.72;74.08
25526;BME280;13424;48.424;11.258;2024-02-04T08:31:55;96483.19;;;9.51;74.73
25526;BME280;13424;48.424;11.258;2024-02-04T08:34:21;96479.31;;;9.47;75.14
25526;BME280;13424;48.424;11.258;2024-02-04T08:36:50;96484.16;;;9.63;74.27
25526;BME280;13424;48.424;11.258;2024-02-04T08:39:16;96482.88;;;9.34;74.85
25526;BME280;13424;48.424;11.258;2024-02-04T08:41:42;96494.16;;;9.74;74.22
25526;BME280;13424;48.424;11.258;2024-02-04T08:44:09;96482.66;;;9.36;75.04
25526;BME280;13424;48.424;11.258;2024-02-04T08:46:35;96495.69;;;9.57;74.58
25526;BME280;13424;48.424;11.258;2024-02-04T08:49:01;96483.31;;;10.07;73.27
25526;BME280;13424;48.424;11.258;2024-02-04T08:51:27;96482.19;;;9.90;73.35
25526;BME280;13424;48.424;11.258;2024-02-04T08:53:53;96467.41;;;9.94;73.56
25526;BME280;13424;48.424;11.258;2024-02-04T08:56:19;96480.34;;;9.91;74.25
25526;BME280;13424;48.424;11.258;2024-02-04T08:58:46;96485.41;;;10.05;73.75
25526;BME280;13424;48.424;11.258;2024-02-04T09:01:12;96486.16;;;10.13;73.17
25526;BME280;13424;48.424;11.258;2024-02-04T09:03:38;96494.56;;;9.71;74.64
25526;BME280;13424;48.424;11.258;2024-02-04T09:06:05;96492.28;;;9.82;73.98
25526;BME280;13424;48.424;11.258;2024-02-04T09:08:31;96492.06;;;10.21;73.07
25526;BME280;13424;48.424;11.258;2024-02-04T09:10:57;96479.91;;;9.94;73.20
25526;BME280;13424;48.424;11.258;2024-02-04T09:13:23;96482.81;;;9.86;73.72
25526;BME280;13424;48.424;11.258;2024-02-04T09:16:14;96480.34;;;9.91;73.97
25526;BME280;13424;48.424;11.258;2024-02-04T09:18:40;96479.13;;;10.18;73.37
25526;BME280;13424;48.424;11.258;2024-02-04T09:21:13;96470.63;;;10.03;73.32
25526;BME280;13424;48.424;11.258;2024-02-04T09:23:40;96474.06;;;10.10;73.20
25526;BME280;13424;48.424;11.258;2024-02-04T09:26:06;96472.34;;;9.91;73.46
25526;BME280;13424;48.424;11.258;2024-02-04T09:28:32;96468.69;;;10.23;72.78
25526;BME280;13424;48.424;11.258;2024-02-04T09:30:58;96470.88;;;10.83;71.24
25526;BME280;13424;48.424;11.258;2024-02-04T09:33:24;96482.75;;;10.62;71.90
25526;BME280;13424;48.424;11.258;2024-02-04T09:35:50;96495.59;;;10.72;71.38
25526;BME280;13424;48.424;11.258;2024-02-04T09:38:16;96479.09;;;10.56;72.19
25526;BME280;13424;48.424;11.258;2024-02-04T09:40:43;96479.03;;;10.38;72.78
25526;BME280;13424;48.424;11.258;2024-02-04T09:43:09;96481.41;;;10.53;72.54
25526;BME280;13424;48.424;11.258;2024-02-04T09:45:36;96492.81;;;10.35;72.84
25526;BME280;13424;48.424;11.258;2024-02-04T09:48:03;96486.53;;;10.23;72.84
25526;BME280;13424;48.424;11.258;2024-02-04T09:50:29;96500.56;;;10.05;73.35
25526;BME280;13424;48.424;11.258;2024-02-04T09:52:59;96513.91;;;10.43;72.67
25526;BME280;13424;48.424;11.258;2024-02-04T09:55:27;96505.53;;;10.33;73.27
25526;BME280;13424;48.424;11.258;2024-02-04T09:57:55;96505.59;;;9.88;74.10
25526;BME280;13424;48.424;11.258;2024-02-04T10:00:21;96511.00;;;10.45;73.19
25526;BME280;13424;48.424;11.258;2024-02-04T10:02:50;96503.38;;;10.10;73.14
25526;BME280;13424;48.424;11.258;2024-02-04T10:05:17;96508.38;;;10.00;73.97
25526;BME280;13424;48.424;11.258;2024-02-04T10:07:43;96503.97;;;10.50;72.33
25526;BME280;13424;48.424;11.258;2024-02-04T10:10:10;96505.72;;;10.38;72.86
25526;BME280;13424;48.424;11.258;2024-02-04T10:12:37;96505.72;;;10.00;73.38
25526;BME280;13424;48.424;11.258;2024-02-04T10:15:05;96500.75;;;10.42;72.56
25526;BME280;13424;48.424;11.258;2024-02-04T10:17:54;96492.63;;;10.30;73.16
25526;BME280;13424;48.424;11.258;2024-02-04T10:20:20;96492.47;;;10.50;72.99
25526;BME280;13424;48.424;11.258;2024-02-04T10:22:46;96477.03;;;10.58;72.14
25526;BME280;13424;48.424;11.258;2024-02-04T10:25:12;96486.44;;;10.04;73.78
25526;BME280;13424;48.424;11.258;2024-02-04T10:27:41;96492.16;;;10.40;72.86
25526;BME280;13424;48.424;11.258;2024-02-04T10:30:07;96505.56;;;10.58;72.17
25526;BME280;13424;48.424;11.258;2024-02-04T10:32:34;96506.97;;;10.36;73.17
25526;BME280;13424;48.424;11.258;2024-02-04T10:35:00;96501.97;;;10.46;72.44
25526;BME280;13424;48.424;11.258;2024-02-04T10:37:27;96511.66;;;10.90;71.73
25526;BME280;13424;48.424;11.258;2024-02-04T10:39:53;96488.19;;;10.49;72.66
25526;BME280;13424;48.424;11.258;2024-02-04T10:42:25;96480.63;;;11.14;71.31
25526;BME280;13424;48.424;11.258;2024-02-04T10:44:54;96483.44;;;11.19;71.62
25526;BME280;13424;48.424;11.258;2024-02-04T10:47:30;96458.16;;;11.40;70.47
25526;BME280;13424;48.424;11.258;2024-02-04T10:49:58;96464.00;;;11.49;69.83
25526;BME280;13424;48.424;11.258;2024-02-04T10:52:35;96450.13;;;11.03;71.13
25526;BME280;13424;48.424;11.258;2024-02-04T10:55:13;96438.78;;;11.26;70.82
25526;BME280;13424;48.424;11.258;2024-02-04T10:57:41;96430.03;;;11.19;71.70
25526;BME280;13424;48.424;11.258;2024-02-04T11:00:09;96441.16;;;12.01;71.21
25526;BME280;13424;48.424;11.258;2024-02-04T11:02:38;96430.78;;;11.74;69.79
25526;BME280;13424;48.424;11.258;2024-02-04T11:05:07;96431.41;;;11.58;70.66
25526;BME280;13424;48.424;11.258;2024-02-04T11:07:37;96420.69;;;11.28;71.44
25526;BME280;13424;48.424;11.258;2024-02-04T11:10:04;96425.06;;;11.04;72.42
25526;BME280;13424;48.424;11.258;2024-02-04T11:12:33;96419.63;;;11.48;70.95
25526;BME280;13424;48.424;11.258;2024-02-04T11:15:05;96406.16;;;11.24;72.08
25526;BME280;13424;48.424;11.258;2024-02-04T11:22:17;96402.50;;;11.67;70.29
25526;BME280;13424;48.424;11.258;2024-02-04T11:27:57;96400.63;;;11.56;70.51
25526;BME280;13424;48.424;11.258;2024-02-04T11:30:24;96413.72;;;12.06;68.83
25526;BME280;13424;48.424;11.258;2024-02-04T11:32:50;96407.34;;;11.58;70.63
25526;BME280;13424;48.424;11.258;2024-02-04T11:35:17;96396.84;;;11.45;70.99
25526;BME280;13424;48.424;11.258;2024-02-04T11:37:46;96405.16;;;11.55;70.60
25526;BME280;13424;48.424;11.258;2024-02-04T11:40:16;96401.97;;;11.46;70.52
25526;BME280;13424;48.424;11.258;2024-02-04T11:42:42;96403.06;;;11.57;70.64
25526;BME280;13424;48.424;11.258;2024-02-04T11:45:13;96404.13;;;11.86;70.02
25526;BME280;13424;48.424;11.258;2024-02-04T11:47:40;96392.84;;;11.84;69.57
25526;BME280;13424;48.424;11.258;2024-02-04T11:50:07;96387.69;;;11.53;70.16
25526;BME280;13424;48.424;11.258;2024-02-04T11:52:35;96395.06;;;11.87;69.88
25526;BME280;13424;48.424;11.258;2024-02-04T11:55:01;96376.59;;;11.97;69.33
25526;BME280;13424;48.424;11.258;2024-02-04T11:57:27;96374.34;;;11.83;70.16
25526;BME280;13424;48.424;11.258;2024-02-04T11:59:54;96369.28;;;11.63;69.60
25526;BME280;13424;48.424;11.258;2024-02-04T12:02:24;96368.16;;;11.40;70.51
25526;BME280;13424;48.424;11.258;2024-02-04T12:04:50;96367.00;;;11.78;70.77
25526;BME280;13424;48.424;11.258;2024-02-04T12:07:17;96361.13;;;11.88;69.31
25526;BME280;13424;48.424;11.258;2024-02-04T12:09:43;96365.19;;;11.90;70.03
25526;BME280;13424;48.424;11.258;2024-02-04T12:12:10;96367.34;;;12.12;69.02
25526;BME280;13424;48.424;11.258;2024-02-04T12:14:36;96373.03;;;12.04;69.12
25526;BME280;13424;48.424;11.258;2024-02-04T12:17:09;96366.28;;;11.71;70.04
25526;BME280;13424;48.424;11.258;2024-02-04T12:19:37;96366.38;;;11.94;69.67
25526;BME280;13424;48.424;11.258;2024-02-04T12:22:05;96359.06;;;12.01;69.53
25526;BME280;13424;48.424;11.258;2024-02-04T12:24:38;96355.38;;;12.61;68.82
25526;BME280;13424;48.424;11.258;2024-02-04T12:27:05;96354.78;;;12.47;68.84
25526;BME280;13424;48.424;11.258;2024-02-04T12:29:32;96348.88;;;12.34;67.87
25526;BME280;13424;48.424;11.258;2024-02-04T12:32:00;96336.19;;;12.52;68.33
25526;BME280;13424;48.424;11.258;2024-02-04T12:34:27;96348.19;;;12.26;68.65
25526;BME280;13424;48.424;11.258;2024-02-04T12:37:01;96349.22;;;12.25;69.64
25526;BME280;13424;48.424;11.258;2024-02-04T12:39:30;96337.34;;;12.10;68.93
25526;BME280;13424;48.424;11.258;2024-02-04T12:41:59;96338.50;;;12.61;68.42
25526;BME280;13424;48.424;11.258;2024-02-04T12:44:25;96340.69;;;12.05;69.71
25526;BME280;13424;48.424;11.258;2024-02-04T12:46:52;96348.91;;;11.80;69.47
25526;BME280;13424;48.424;11.258;2024-02-04T12:49:20;96333.59;;;11.87;69.37
25526;BME280;13424;48.424;11.258;2024-02-04T12:51:50;96342.69;;;11.68;70.04
25526;BME280;13424;48.424;11.258;2024-02-04T12:55:27;96326.97;;;11.60;69.72
25526;BME280;13424;48.424;11.258;2024-02-04T12:58:08;96336.16;;;12.06;70.22
25526;BME280;13424;48.424;11.258;2024-02-04T13:00:37;96333.31;;;11.77;69.71
25526;BME280;13424;48.424;11.258;2024-02-04T13:03:05;96324.56;;;12.12;70.36
25526;BME280;13424;48.424;11.258;2024-02-04T13:05:34;96319.41;;;11.87;69.72
25526;BME280;13424;48.424;11.258;2024-02-04T13:08:02;96321.78;;;11.77;70.78
25526;BME280;13424;48.424;11.258;2024-02-04T13:10:34;96322.00;;;12.17;69.84
25526;BME280;13424;48.424;11.258;2024-02-04T13:13:03;96314.53;;;11.95;69.66
25526;BME280;13424;48.424;11.258;2024-02-04T13:15:34;96318.03;;;12.08;69.32
25526;BME280;13424;48.424;11.258;2024-02-04T13:18:00;96311.88;;;12.42;68.34
25526;BME280;13424;48.424;11.258;2024-02-04T13:20:26;96326.78;;;12.50;68.45